Terminal Aerodrome Forecast
Issued by NWS

Home | Current Version | Previous Version | Text Only | Print | Product List | Glossary On
Versions: 1 2 3 4 5 6 7 8 9 10 11 12 13 14
000
FTUS45 KFGZ 292336
TAFPRC
TAF
KPRC 292336Z 3000/3024 35015G24KT P6SM FEW090
      TEMPO 3000/3002 29014G24KT
     FM300230 32010KT P6SM SKC
     FM301900 32010G17KT P6SM SCT250=

USA.gov is the U.S. government's official web portal to all federal, state and local government web resources and services.